Terminal Aerodrome Forecast
Issued by NWS Charleston, WV

Current Version | Previous Version | Text Only | Print | Product List | Glossary Off
Versions: 1 2 3 4 5 6 7 8 9 10 11 12 13 14 15 16 17 18 19

764
FTUS41 KRLX 082332
TAFEKN
TAF
KEKN 082332Z 0900/0924 27008KT 6SM -SHSN BR OVC025
      TEMPO 0901/0903 26010G22KT 2SM -SN OVC015
     FM090400 27007KT 3SM -SHSN OVC015
     FM090800 28008KT 2SM -SHSN BR OVC015
     FM091400 25010G20KT 1SM -SHSN BR OVC015=

USA.gov is the U.S. government's official web portal to all federal, state and local government web resources and services.